Fleeflicker's sites:

title views votes rating creation
?Slaphappy 1,244 34 (3.68)  2005-10-24
?Pussy!CAT. 1,824 20 (3.40)  2005-10-26
?THE $100,000 PYRAMID! 9,932 439 (4.10)  2005-12-03
?toasty 1,412 16 (3.56)  2005-12-23
?They've gone to plaid!(tiled, sorry) 3,411 20 (3.60)  2006-01-07
?Spaceballs Buckle Up 2,092 29 (3.79)  2006-01-08
?Action Khan (Now with Genesis). 2,925 24 (3.63)  2006-01-12
?Conan stares into Eric's soul. 2,881 89 (3.82)  2006-01-13
?Indiana Jones: Lost City of Atlantis spoiler 2,265 16 (3.56)  2006-01-13
?Paris Hilton is very Happy. 16,117 113 (3.92)  2006-01-29
?Sean Connery Speaks Truth 5,840 104 (4.02)  2006-02-14
?Ode to the Choco Taco 2,451 73 (3.97)  2006-02-15
?Another Lame Adaptation of a YTMND 592 11 (3.27)  2006-02-20
?Mavis Beacon PTKFGS 4,921 132 (3.86)  2006-03-07
?Brian Fellows, Safari Planet 6,545 32 (4.00)  2006-03-07
?Acetone Messiah! 3,732 134 (4.01)  2006-03-09
?dew looking out my backdoor. 1,878 39 (3.85)  2006-03-09
?Lambchop Seizes Control. 4,449 397 (3.88)  2006-03-12
?Hollywood Bought the Rights 2 *final* 7,826 412 (4.08)  2006-03-29
?Bought a disposable camera in Compton! (graphic pi... 2,330 123 (3.90)  2006-04-01
?Picard wakes Snorlax 1,952 63 (3.79)  2006-04-04
?Catch you later! 1,873 24 (3.00)  2006-04-07
?Homepage Update #1 756 20 (3.65)  2006-04-18
?The Real Happy Forest 9,583 101 (4.47)  2006-04-28
?American Gladiators'® "Sophisticat... 1,543 18 (4.00)  2006-05-01
?Smokey is on Alert 2,200 136 (4.01)  2006-05-07
?Arnold Enjoys Picard More Anyways 5,369 126 (3.90)  2006-05-10
?El Niño is Spanish for.... 979 91 (3.64)  2006-05-14
?Rejected Pog Design #32 1,208 21 (3.43)  2006-06-01
?Galaxy Song 906 20 (3.45)  2006-06-04
?Bob Ross Bee Harvests Nectar From Rare Barry ... 1,913 36 (3.53)  2006-06-10
?Paul Boomer: Professional Fartsman (long audio) 20,309 32 (3.72)  2006-06-22
?Lord Windesmere: Champion Fartsman (1/2) (Long... 12,312 14 (3.86)  2006-06-22
?Lord Windesmere: Champion Fartsman (2/2) (Long... 11,744 20 (3.80)  2006-06-22
?RIP Darryl Strawberry *revised audio* 1,317 23 (4.04)  2006-06-27
?Gabe Walker Conquers the Twin Peaks of Johans... 3,874 74 (3.64)  2006-07-06
?Gabe Walker Attempts (to) Mount Lopez 1,052 13 (3.38)  2006-07-07
?A More Noble Cause 7,728 249 (3.82)  2006-07-10
?Lol, Lemmiwinks (could have had better execution). 1,316 38 (3.55)  2006-07-13
?Hey, you STILL don't have a Sega CD... 7,713 301 (3.76)  2006-07-13
?Japanese Graphics Tightening In Progress 20,850 519 (4.11)  2006-07-13
?INTENSE GAMING 10,179 295 (3.94)  2006-07-15
?Segata SanshirĊ Takes Balls to the Chest 1,043 30 (3.53)  2006-07-15
?Leon Phelps is the Man now 1,363 14 (3.71)  2006-07-18
?Words of Wisdom: Farley 453 9 (3.33)  2006-07-23
?The only true way to use Adobe Photo Shop 38,371 1,197 (4.16)  2006-07-23
?Do You ***REALLY *** Remember 1998? 1,196 32 (3.66)  2006-07-25
?Life From A Dot 3,696 119 (3.72)  2006-07-26
?Hermione Nip-Slip on Nickelodeon 22,364 88 (3.48)  2006-07-26
?Let's see if you remember this ish... 613 8 (3.75)  2006-08-02
?Sheik Hassan Nasrallah addresses the Media 1,001 10 (3.80)  2006-08-02
?Little Richard Strikes the Innocent 3,351 144 (3.77)  2006-08-03
?The Wall Trap, Ahhhhhhh!!!!!! 20,662 535 (4.10)  2006-08-04
?You're a Dead Man, Ramsey! 5,831 68 (3.74)  2006-08-10
?I would like to solve the puzzle! 14,269 417 (4.08)  2006-08-14
?(artsytmnd): Gradients 691 54 (3.91)  2006-08-20
?Even the late Otis Redding made it there. 634 9 (3.44)  2006-08-23
?Betelgeuse Adopts Pluto 1,421 20 (4.00)  2006-08-26
?MSALM: Jackie Chan 12,736 443 (4.18)  2006-08-28
?The IAU was deceived 611 12 (3.50)  2006-09-01
?LotR: Theoden Crash Fenslerfilm 1,988 24 (3.92)  2006-09-06
?They Is Dissin' Our Posse 742 6 (3.33)  2006-09-10
?Emeril Lagasse upvotes (almost) all of money-hat&... 981 15 (3.60)  2006-09-14
?Epic Golden Axe Maneuver 14,138 80 (3.88)  2006-09-25
?Does YTMND Remember Zissou? 1,745 89 (3.96)  2006-10-11
?Hulk Hogan Is Watching You 675 7 (3.29)  2006-11-19
?Master Exploder: Condoleezza Rice Facemelter. 2,214 36 (3.67)  2006-11-25
?Ralphy's Decoder Pin Reveals Secrets 436 10 (3.70)  2006-12-03
?Crazy Somolian Dude Rocks the Wii + Bob 673 8 (3.75)  2006-12-06
?Chestnuts Roasting... 5,741 301 (3.92)  2006-12-16
?Fate of the Planet! 1,862 87 (3.74)  2007-01-01
?Poland is very Happy, Vote 5. 900 23 (3.57)  2007-01-02
?Bennett Makes Music 1,855 7 (3.00)  2007-01-11
?ddiknad's blocks: translated 921 20 (3.70)  2007-01-22
?PROTECT THAT THIGH! 12,099 372 (4.17)  2007-01-22
?Laughin' Taft 1,074 20 (3.75)  2007-01-23
?You Betrayed the Lawlawlawlawlawlawlawlaw doo... 10,965 366 (4.25)  2007-01-25
?Pshoshotshiop OCnotesT, MErbliooo! 737 16 (2.88)  2007-01-29
?YTMND Ritual Viewing 911 13 (4.15)  2007-02-05
?Chilie Con Carne Mix 575 4 (4.00)  2007-02-06
?Ring te Bells 626 8 (3.25)  2007-03-06
?Ev can't believe it.. 322 7 (3.29)  2007-03-23
?Vibrant Twinkie. 1,239 15 (3.53)  2007-03-23
?Yul Brenner is not in the Easter Spirit 4,381 22 (4.45)  2007-04-08
?First Day at Work (If you stand back really far it lo... 13,926 325 (4.14)  2007-05-19
?1112211 1,522 24 (3.88)  2007-05-22
?M4DH4TT3R 665 9 (3.56)  2007-06-09
?Touch It. 15,298 329 (3.95)  2007-06-09
?Goldblum has something to say 733 5 (3.60)  2007-06-11
?Tater Mitts Delivers 452 3 (2.67)  2007-08-01
?NightTrap: Your Bullets Can't Hurt Me! 547 5 (2.00)  2007-09-02
?Captain Kirk is Steamed... 626 13 (3.31)  2007-09-13
?Just Stick it in Your Genesis 429 3 (2.33)  2007-09-16
?Jeff Dowder's Question of the Week! 1,148 36 (3.86)  2007-11-12
?Hanz Don't Take No Woman Lip 464 13 (3.15)  2007-11-28
?THIS IS SERIOUS! 454 4 (3.50)  2008-01-13
?PTKFGS: School Buses hate Ken 21,456 480 (4.36)  2008-01-14
?They're Smaller Than NUTS! 367 6 (3.67)  2008-02-27
?Blot That! 202 1 (2.00)  2008-03-11
?Da Club Soda 328 8 (2.25)  2008-03-13
?Cobra is a fun guy 1,332 5 (4.20)  2008-04-10
?coleco-smurf, it's smurftalk... 502 4 (3.75)  2008-04-14
?You Betrayed the WORF! 1,464 23 (3.78)  2008-04-15
?Hard Eggs 17,089 343 (4.18)  2008-05-05
?HAMMONDS 176 399 2 (3.00)  2008-05-29
?I'm out of quarters. 634 4 (3.50)  2008-05-30
?MPHMPHBDANS 671 12 (3.67)  2008-06-09
?Let me see your identity card... 456 7 (2.86)  2008-06-13
?Woman Won't Take Thulsa Doom's ... 613 3 (4.00)  2008-06-16
?Nick Burns: Computer Gangsta 681 9 (2.44)  2008-07-30
?PRIDE 308 5 (2.60)  2008-08-07
?Ten Chinese Flavors of Jell-o 360 3 (2.67)  2008-09-29
?James David Manning hates Sinbad 860 21 (4.00)  2008-10-12
?Pizza What? 2,116 97 (3.94)  2009-01-25
?De Disco! De Disco! 880 17 (3.65)  2009-03-05
?Razor Gator Goes Intercontinental 946 40 (3.43)  2009-03-10
?T-Shirt: The Actual Truth™ 351 5 (2.80)  2009-03-26
?T-Shighrt - Epic 763 11 (3.73)  2009-03-28
?bound to make more than 1 person angry T-Shirt 789 16 (3.25)  2009-04-05
?Fashionably Late Easter Site 675 7 (3.00)  2009-04-14
?Live Footage of Michael Jackson's Heart Att... 1,139 14 (3.29)  2009-06-26
?QUICK 942 3 (4.33)  2009-07-14
?Emma Watson's Lingerie Halloween Costum... 3,850 12 (3.67)  2009-11-01
?Bully Machine. 551 7 (2.86)  2009-11-02
?Almost Worth The Punchline 8,292 149 (4.07)  2011-03-21
?The Betrayal of the Edmund Fitzgerald 1,213 24 (4.00)  2011-03-21
?Nixon Admires Constellation Armstrong 818 7 (3.43)  2011-03-22
?Wreck of the Dr. Raymund Stantzgerald 849 16 (4.25)  2011-03-22
?Dat's Racist 18,700 209 (4.54)  2011-09-11
?Feels Damn Good 5,183 105 (4.11)  2012-07-02
?First Day At Work 2.0 14,873 147 (4.62)  2012-10-03
?HOW DO I GET IT WET? 5,509 75 (4.43)  2012-11-11
?DEATH OF THE INTERNET 8,107 85 (4.45)  2012-11-15
?Terry Crews Happy Holidays 344 5 (3.00)  2012-11-30
?Taylor Swift GLSA 5,175 65 (4.31)  2013-03-10
?The Last Shred of Dignity 2,379 46 (4.17)  2013-04-29
?ITS SNOWING! 1,761 48 (4.15)  2013-04-29
?The Xbox ONE 9,864 94 (4.32)  2013-06-14
?THATS WHERE WE'LL FIND EM 302 4 (2.50)  2014-03-19
?M'Lady on 34th Street 118 5 (3.20)  2014-12-24
?WOOOOOOO!! 237 2 (5.00)  2016-03-12